Time;durP1;ratioP1;P1;durP2;ratioP2;P2;SDS_P1;SDS_P2;PMS_P1;PMS_P2;Temp;Humidity;BMP_temperature;BMP_pressure;BME280_temperature;BME280_humidity;BME280_pressure;Samples;Min_cycle;Max_cycle;Signal;HPM_P1;HPM_P2
2022/03/29 00:01:51;;;;;;;6.68;4.22;;;6.60;99.90;;;;;;7377757;19;20357;-68
2022/03/29 00:04:17;;;;;;;7.30;4.95;;;6.50;99.90;;;;;;7379711;19;20324;-67
2022/03/29 00:06:42;;;;;;;6.30;4.83;;;6.50;99.90;;;;;;7377993;19;20396;-67
2022/03/29 00:09:08;;;;;;;6.40;4.77;;;6.50;99.90;;;;;;7379580;19;20344;-67
2022/03/29 00:11:33;;;;;;;6.10;5.03;;;6.40;99.90;;;;;;7377138;19;20340;-67
2022/03/29 00:14:02;;;;;;;6.33;5.60;;;6.30;99.90;;;;;;7380222;19;20904;-67
2022/03/29 00:16:28;;;;;;;8.77;6.20;;;6.30;99.90;;;;;;7363188;19;20416;-67
2022/03/29 00:18:54;;;;;;;6.87;5.27;;;6.30;99.90;;;;;;7379424;19;20344;-67
2022/03/29 00:21:19;;;;;;;9.40;6.27;;;6.20;99.90;;;;;;7379361;19;20855;-66
2022/03/29 00:23:45;;;;;;;6.47;5.70;;;6.30;99.90;;;;;;7377547;19;20348;-66
2022/03/29 00:26:10;;;;;;;8.10;6.17;;;6.30;99.90;;;;;;7375725;19;20340;-66
2022/03/29 00:28:36;;;;;;;9.65;6.45;;;6.20;99.90;;;;;;7376827;19;20340;-66
2022/03/29 00:31:02;;;;;;;8.73;6.80;;;6.20;99.90;;;;;;7375444;19;20348;-66
2022/03/29 00:33:27;;;;;;;8.13;6.82;;;6.10;99.90;;;;;;7379839;19;20316;-67
2022/03/29 00:35:53;;;;;;;8.87;7.30;;;6.10;99.90;;;;;;7375408;19;20349;-66
2022/03/29 00:38:19;;;;;;;8.70;7.23;;;6.10;99.90;;;;;;7377716;19;20868;-66
2022/03/29 00:40:45;;;;;;;11.23;7.75;;;6.10;99.90;;;;;;7377556;19;20321;-67
2022/03/29 00:43:11;;;;;;;11.00;7.93;;;6.10;99.90;;;;;;7377752;19;20372;-67
2022/03/29 00:45:37;;;;;;;9.90;7.53;;;6.10;99.90;;;;;;7375816;19;20674;-66
2022/03/29 00:48:04;;;;;;;12.88;8.68;;;6.00;99.90;;;;;;7377288;19;20372;-66
2022/03/29 00:50:30;;;;;;;12.23;8.63;;;6.00;99.90;;;;;;7375200;19;20337;-66
2022/03/29 00:52:55;;;;;;;9.63;7.67;;;6.00;99.90;;;;;;7377021;19;20341;-67
2022/03/29 00:55:21;;;;;;;11.03;8.80;;;6.00;99.90;;;;;;7376762;19;20743;-66
2022/03/29 00:57:47;;;;;;;11.20;8.73;;;5.90;99.90;;;;;;7374150;19;20327;-67
2022/03/29 01:00:16;;;;;;;10.20;8.03;;;5.90;99.90;;;;;;7375644;19;20293;-67
2022/03/29 01:02:42;;;;;;;9.90;7.53;;;5.80;99.90;;;;;;7377752;19;20383;-67
2022/03/29 01:05:08;;;;;;;10.65;8.65;;;5.90;99.90;;;;;;7379329;19;20345;-67
2022/03/29 01:07:35;;;;;;;11.80;8.55;;;5.80;99.90;;;;;;7376082;19;20764;-66
2022/03/29 01:10:01;;;;;;;11.70;9.18;;;5.80;99.90;;;;;;7380489;19;20343;-66
2022/03/29 01:12:29;;;;;;;13.57;9.80;;;5.80;99.90;;;;;;7374242;19;20336;-66
2022/03/29 01:14:54;;;;;;;14.10;9.85;;;5.80;99.90;;;;;;7373282;19;20315;-67
2022/03/29 01:17:38;;;;;;;11.48;8.93;;;5.70;99.90;;;;;;7352784;19;20872;-66
2022/03/29 01:20:13;;;;;;;11.50;9.67;;;5.70;99.90;;;;;;7377145;19;20309;-66
2022/03/29 01:22:42;;;;;;;12.57;9.45;;;5.60;99.90;;;;;;7377014;19;20321;-65
2022/03/29 01:25:08;;;;;;;12.27;9.87;;;5.60;99.90;;;;;;7379874;19;20359;-66
2022/03/29 01:27:34;;;;;;;13.70;9.30;;;5.50;99.90;;;;;;7377454;19;20320;-66
2022/03/29 01:30:00;;;;;;;12.20;10.17;;;5.50;99.90;;;;;;7379694;19;20345;-66
2022/03/29 01:32:29;;;;;;;12.82;9.60;;;5.40;99.90;;;;;;7375452;19;20346;-66
2022/03/29 01:34:57;;;;;;;13.88;10.88;;;5.30;99.90;;;;;;7374355;19;20348;-66
2022/03/29 01:37:24;;;;;;;14.52;10.60;;;5.30;99.90;;;;;;7377393;19;20643;-66
2022/03/29 01:39:49;;;;;;;15.50;10.63;;;5.30;99.90;;;;;;7358507;19;20326;-66
2022/03/29 01:42:15;;;;;;;13.10;9.70;;;5.20;99.90;;;;;;7374991;19;20293;-66
2022/03/29 01:44:41;;;;;;;13.90;10.48;;;5.20;99.90;;;;;;7377079;19;20317;-67
2022/03/29 01:47:07;;;;;;;10.70;9.33;;;5.20;99.90;;;;;;7375834;19;20403;-66
2022/03/29 01:49:33;;;;;;;12.37;10.07;;;5.30;99.90;;;;;;7374802;19;20355;-66
2022/03/29 01:51:58;;;;;;;11.10;9.45;;;5.30;99.90;;;;;;7373886;19;20336;-66
2022/03/29 01:54:24;;;;;;;10.85;8.45;;;5.20;99.90;;;;;;7377658;19;20313;-66
2022/03/29 01:56:49;;;;;;;10.90;8.90;;;5.20;99.90;;;;;;7372699;19;21004;-67
2022/03/29 01:59:18;;;;;;;12.70;9.95;;;5.20;99.90;;;;;;7372674;19;20364;-67
2022/03/29 02:01:46;;;;;;;14.27;10.30;;;5.20;99.90;;;;;;7359539;19;20368;-67
2022/03/29 02:04:12;;;;;;;12.52;10.60;;;5.20;99.90;;;;;;7377022;19;20366;-68
2022/03/29 02:06:38;;;;;;;12.65;9.77;;;5.10;99.90;;;;;;7374607;19;20332;-67
2022/03/29 02:09:06;;;;;;;14.13;9.93;;;5.10;99.90;;;;;;7374770;19;20343;-67
2022/03/29 02:11:32;;;;;;;11.48;9.40;;;5.10;99.90;;;;;;7372903;19;20340;-67
2022/03/29 02:13:58;;;;;;;12.70;9.73;;;5.10;99.90;;;;;;7374148;19;20941;-66
2022/03/29 02:16:23;;;;;;;12.52;9.50;;;5.10;99.90;;;;;;7376189;19;20355;-66
2022/03/29 02:18:49;;;;;;;11.87;9.23;;;5.20;99.90;;;;;;7374241;19;20336;-66
2022/03/29 02:21:15;;;;;;;15.13;10.18;;;5.20;99.90;;;;;;7373731;19;20358;-67
2022/03/29 02:23:41;;;;;;;13.00;10.43;;;5.20;99.90;;;;;;7373662;19;20396;-67
2022/03/29 02:26:07;;;;;;;13.18;10.07;;;5.20;99.90;;;;;;7371446;19;20435;-67
2022/03/29 02:28:33;;;;;;;13.60;10.65;;;5.30;99.90;;;;;;7373498;19;20320;-66
2022/03/29 02:30:59;;;;;;;11.13;9.23;;;5.30;99.90;;;;;;7383639;19;20719;-67
2022/03/29 02:33:24;;;;;;;12.07;9.13;;;5.40;99.90;;;;;;7382658;19;20359;-67
2022/03/29 02:35:50;;;;;;;10.52;9.05;;;5.40;99.90;;;;;;7384747;19;20312;-67
2022/03/29 02:38:18;;;;;;;12.80;9.97;;;5.40;99.90;;;;;;7382032;19;20699;-66
2022/03/29 02:40:49;;;;;;;14.35;9.27;;;5.40;99.90;;;;;;7377761;19;20311;-66
2022/03/29 02:43:15;;;;;;;12.18;9.90;;;5.50;99.90;;;;;;7381446;19;20332;-66
2022/03/29 02:45:40;;;;;;;12.07;10.23;;;5.40;99.90;;;;;;7380055;19;20304;-66
2022/03/29 02:48:06;;;;;;;13.07;10.45;;;5.60;99.90;;;;;;7382011;19;20796;-67
2022/03/29 02:50:32;;;;;;;13.00;9.57;;;5.50;99.90;;;;;;7381540;19;20385;-66
2022/03/29 02:52:59;;;;;;;10.87;9.70;;;5.40;99.90;;;;;;7380579;19;20344;-67
2022/03/29 02:55:26;;;;;;;12.55;10.20;;;5.40;99.90;;;;;;7379428;19;20321;-67
2022/03/29 02:57:53;;;;;;;12.53;9.57;;;5.40;99.90;;;;;;7383021;19;20349;-67
2022/03/29 03:00:18;;;;;;;12.07;10.10;;;5.30;99.90;;;;;;7380537;19;20339;-66
2022/03/29 03:02:47;;;;;;;12.70;9.97;;;5.40;99.90;;;;;;7380042;19;20340;-66
2022/03/29 03:05:13;;;;;;;11.25;9.88;;;5.20;99.90;;;;;;7381706;19;20304;-66
2022/03/29 03:07:39;;;;;;;11.57;9.90;;;5.20;99.90;;;;;;7382084;19;20325;-67
2022/03/29 03:10:06;;;;;;;12.85;9.90;;;5.10;99.90;;;;;;7379829;19;20867;-67
2022/03/29 03:12:35;;;;;;;12.43;9.65;;;5.00;99.90;;;;;;7382625;19;20341;-67
2022/03/29 03:15:01;;;;;;;10.48;9.30;;;5.00;99.90;;;;;;7381332;19;20337;-67
2022/03/29 03:17:27;;;;;;;15.35;10.18;;;4.90;99.90;;;;;;7380466;19;20331;-66
2022/03/29 03:19:52;;;;;;;11.20;9.07;;;4.80;99.90;;;;;;7379363;19;20345;-68
2022/03/29 03:22:18;;;;;;;11.67;9.53;;;4.80;99.90;;;;;;7363793;19;20946;-66
2022/03/29 03:24:44;;;;;;;12.70;9.52;;;4.80;99.90;;;;;;7377305;19;20396;-66
2022/03/29 03:27:09;;;;;;;10.30;8.73;;;4.80;99.90;;;;;;7379483;19;20369;-66
2022/03/29 03:29:35;;;;;;;12.18;9.75;;;4.70;99.90;;;;;;7377863;19;20343;-66
2022/03/29 03:32:01;;;;;;;11.52;9.23;;;4.70;99.90;;;;;;7381048;19;20348;-66
2022/03/29 03:34:26;;;;;;;12.77;10.10;;;4.60;99.90;;;;;;7385730;19;20367;-67
2022/03/29 03:36:52;;;;;;;12.07;9.88;;;4.60;99.90;;;;;;7377821;19;20344;-66
2022/03/29 03:39:18;;;;;;;13.93;10.23;;;4.60;99.90;;;;;;7378814;19;20308;-66
2022/03/29 03:41:44;;;;;;;13.80;9.88;;;4.50;99.90;;;;;;7375264;19;21345;-66
2022/03/29 03:44:11;;;;;;;13.37;10.50;;;4.50;99.90;;;;;;7380937;19;20328;-66
2022/03/29 03:46:37;;;;;;;13.73;9.25;;;4.60;99.90;;;;;;7380931;19;20317;-67
2022/03/29 03:49:03;;;;;;;13.10;10.20;;;4.50;99.90;;;;;;7378319;19;21083;-67
2022/03/29 03:51:28;;;;;;;10.63;9.20;;;4.60;99.90;;;;;;7376787;19;20367;-66
2022/03/29 03:53:54;;;;;;;11.43;9.25;;;4.60;99.90;;;;;;7379759;19;21011;-66
2022/03/29 03:56:20;;;;;;;11.80;9.70;;;4.60;99.90;;;;;;7379225;19;20674;-66
2022/03/29 03:58:45;;;;;;;12.15;10.23;;;4.70;99.90;;;;;;7377084;19;20305;-68
2022/03/29 04:01:12;;;;;;;12.40;9.47;;;4.60;99.90;;;;;;7378899;19;20344;-66
2022/03/29 04:03:38;;;;;;;11.73;9.43;;;4.70;99.90;;;;;;7381272;19;20317;-67
2022/03/29 04:06:04;;;;;;;12.57;10.25;;;4.70;99.90;;;;;;7379048;19;20321;-67
2022/03/29 04:08:29;;;;;;;14.18;10.57;;;4.70;99.90;;;;;;7379136;19;20636;-68
2022/03/29 04:10:56;;;;;;;14.30;10.80;;;4.70;99.90;;;;;;7377154;19;20752;-67
2022/03/29 04:13:22;;;;;;;13.65;10.07;;;4.70;99.90;;;;;;7359913;19;20312;-66
2022/03/29 04:15:48;;;;;;;12.02;10.00;;;4.80;99.90;;;;;;7378419;19;20350;-66
2022/03/29 04:18:14;;;;;;;11.57;9.85;;;4.70;99.90;;;;;;7378664;19;20305;-67
2022/03/29 04:20:40;;;;;;;14.52;10.75;;;4.80;99.90;;;;;;7376830;19;20869;-66
2022/03/29 04:23:07;;;;;;;12.80;9.88;;;4.80;99.90;;;;;;7379958;19;20316;-67
2022/03/29 04:25:34;;;;;;;14.02;10.15;;;4.90;99.90;;;;;;7379843;19;21017;-67
2022/03/29 04:27:59;;;;;;;13.90;10.60;;;4.90;99.90;;;;;;7375953;19;20391;-67
2022/03/29 04:30:26;;;;;;;13.30;9.60;;;4.90;99.90;;;;;;7376961;19;20702;-66
2022/03/29 04:32:53;;;;;;;12.32;10.02;;;5.00;99.90;;;;;;7377923;19;20300;-67
2022/03/29 04:35:18;;;;;;;13.53;10.67;;;5.00;99.90;;;;;;7378409;19;20877;-67
2022/03/29 04:37:44;;;;;;;12.70;10.13;;;5.10;99.90;;;;;;7377834;19;20332;-66
2022/03/29 04:40:11;;;;;;;14.25;10.07;;;5.10;99.90;;;;;;7361665;19;21072;-66
2022/03/29 04:42:54;;;;;;;13.05;10.48;;;5.10;99.90;;;;;;7378665;19;20625;-67
2022/03/29 04:45:20;;;;;;;12.70;9.70;;;5.10;99.90;;;;;;7381094;19;20347;-67
2022/03/29 04:47:46;;;;;;;13.63;10.43;;;5.10;99.90;;;;;;7372826;19;20889;-66
2022/03/29 04:50:13;;;;;;;12.45;10.73;;;5.10;99.90;;;;;;7378458;19;20382;-66
2022/03/29 04:52:44;;;;;;;14.53;11.07;;;5.10;99.90;;;;;;7378261;19;20332;-66
2022/03/29 04:55:16;;;;;;;13.25;10.10;;;5.10;99.90;;;;;;7378839;19;20968;-67
2022/03/29 04:57:42;;;;;;;13.80;10.60;;;5.10;99.90;;;;;;7378651;19;20332;-67
2022/03/29 05:00:12;;;;;;;13.85;10.25;;;5.00;99.90;;;;;;7379076;19;20320;-67
2022/03/29 05:02:41;;;;;;;16.77;10.30;;;5.10;99.90;;;;;;7375511;19;20412;-67
2022/03/29 05:05:07;;;;;;;13.00;10.50;;;5.20;99.90;;;;;;7377421;19;20403;-66
2022/03/29 05:07:33;;;;;;;12.03;9.80;;;5.20;99.90;;;;;;7376468;19;20317;-66
2022/03/29 05:09:59;;;;;;;12.82;10.85;;;5.20;99.90;;;;;;7377739;19;20349;-66
2022/03/29 05:12:25;;;;;;;12.25;10.27;;;5.20;99.90;;;;;;7377365;19;20337;-66
2022/03/29 05:14:50;;;;;;;13.07;10.27;;;5.20;99.90;;;;;;7378829;19;20353;-66
2022/03/29 05:17:16;;;;;;;11.60;9.53;;;5.30;99.90;;;;;;7376582;19;20443;-67
2022/03/29 05:19:42;;;;;;;12.63;10.38;;;5.30;99.90;;;;;;7377881;19;21019;-67
2022/03/29 05:22:07;;;;;;;11.70;10.20;;;5.30;99.90;;;;;;7374030;19;20328;-67
2022/03/29 05:24:33;;;;;;;13.13;10.45;;;5.40;99.90;;;;;;7375398;19;20320;-67
2022/03/29 05:26:58;;;;;;;13.60;10.40;;;5.40;99.90;;;;;;7378647;19;20371;-66
2022/03/29 05:29:25;;;;;;;13.93;10.93;;;5.40;99.90;;;;;;7376901;19;20344;-67
2022/03/29 05:31:51;;;;;;;14.35;11.02;;;5.40;99.90;;;;;;7374035;19;20309;-67
2022/03/29 05:34:16;;;;;;;14.02;11.07;;;5.40;99.90;;;;;;7375490;19;21202;-66
2022/03/29 05:36:45;;;;;;;14.73;11.52;;;5.40;99.90;;;;;;7376701;19;20348;-66
2022/03/29 05:39:13;;;;;;;14.07;10.82;;;5.40;99.90;;;;;;7378076;19;20387;-67
2022/03/29 05:41:39;;;;;;;12.77;10.82;;;5.40;99.90;;;;;;7377702;19;20301;-67
2022/03/29 05:44:05;;;;;;;15.00;11.68;;;5.40;99.90;;;;;;7376929;19;20324;-66
2022/03/29 05:49:15;;;;;;;15.20;11.60;;;5.50;99.90;;;;;;7376296;19;20321;-66
2022/03/29 05:51:41;;;;;;;14.95;11.00;;;5.40;99.90;;;;;;7375603;19;20316;-66
2022/03/29 05:54:06;;;;;;;16.07;12.03;;;5.50;99.90;;;;;;7376687;19;20333;-66
2022/03/29 05:56:32;;;;;;;14.73;11.67;;;5.50;99.90;;;;;;7371678;19;20312;-66
2022/03/29 05:58:58;;;;;;;16.17;11.68;;;5.50;99.90;;;;;;7378614;19;20344;-67
2022/03/29 06:01:23;;;;;;;16.10;12.50;;;5.50;99.90;;;;;;7370156;19;20308;-67
2022/03/29 06:03:49;;;;;;;14.27;10.98;;;5.60;99.90;;;;;;7375740;19;20312;-66
2022/03/29 06:06:15;;;;;;;15.45;12.23;;;5.70;99.90;;;;;;7382105;19;20314;-67
2022/03/29 06:08:41;;;;;;;15.47;12.23;;;5.70;99.90;;;;;;7381351;19;20333;-67
2022/03/29 06:11:07;;;;;;;16.10;12.43;;;5.70;99.90;;;;;;7379017;19;20316;-66
2022/03/29 06:13:33;;;;;;;15.83;12.07;;;5.70;99.90;;;;;;7381625;19;20754;-67
2022/03/29 06:15:59;;;;;;;16.30;12.75;;;5.70;99.90;;;;;;7380100;19;20351;-66
2022/03/29 06:18:24;;;;;;;17.80;13.10;;;5.70;99.90;;;;;;7384048;19;20355;-66
2022/03/29 06:20:50;;;;;;;16.37;12.80;;;5.80;99.90;;;;;;7381772;19;20463;-67
2022/03/29 06:23:16;;;;;;;16.17;12.63;;;5.80;99.90;;;;;;7382426;19;20328;-67
2022/03/29 06:25:42;;;;;;;16.13;13.13;;;5.90;99.90;;;;;;7382405;19;20325;-66
2022/03/29 06:28:10;;;;;;;20.42;14.05;;;5.90;99.90;;;;;;7380869;19;20411;-66
2022/03/29 06:30:37;;;;;;;15.68;12.60;;;5.80;99.90;;;;;;7380491;19;20374;-67
2022/03/29 06:33:02;;;;;;;16.70;13.00;;;5.80;99.90;;;;;;7382385;19;20371;-67
2022/03/29 06:35:28;;;;;;;18.95;14.07;;;5.90;99.90;;;;;;7380885;19;20638;-67
2022/03/29 06:37:58;;;;;;;18.60;13.00;;;5.80;99.90;;;;;;7380451;19;20354;-66
2022/03/29 06:40:24;;;;;;;15.80;12.43;;;5.80;99.90;;;;;;7378894;19;20309;-66
2022/03/29 06:42:50;;;;;;;17.60;13.60;;;5.90;99.90;;;;;;7379855;19;20964;-67
2022/03/29 06:45:16;;;;;;;16.45;13.27;;;6.00;99.90;;;;;;7382001;19;20324;-67
2022/03/29 06:47:41;;;;;;;18.33;13.63;;;6.00;99.90;;;;;;7381509;19;20328;-67
2022/03/29 06:50:08;;;;;;;16.52;12.55;;;5.90;99.90;;;;;;7380926;19;20324;-67
2022/03/29 06:52:38;;;;;;;16.20;12.77;;;5.90;99.90;;;;;;7381141;19;20858;-67
2022/03/29 06:55:05;;;;;;;18.88;13.50;;;6.00;99.90;;;;;;7382395;19;20323;-67
2022/03/29 06:57:30;;;;;;;16.13;12.80;;;5.90;99.90;;;;;;7379738;19;20685;-66
2022/03/29 06:59:56;;;;;;;17.05;13.05;;;6.00;99.90;;;;;;7382874;19;20349;-67
2022/03/29 07:02:22;;;;;;;15.67;13.07;;;6.00;99.90;;;;;;7379388;19;20436;-67
2022/03/29 07:04:47;;;;;;;17.40;13.32;;;6.00;99.90;;;;;;7380736;19;20655;-67
2022/03/29 07:07:13;;;;;;;16.60;12.97;;;6.00;99.90;;;;;;7381823;19;20329;-67
2022/03/29 07:12:23;;;;;;;18.92;14.20;;;6.10;99.90;;;;;;7381623;19;20297;-66
2022/03/29 07:14:49;;;;;;;17.88;12.68;;;6.10;99.90;;;;;;7374354;19;20328;-67
2022/03/29 07:17:17;;;;;;;16.85;13.25;;;6.10;99.90;;;;;;7380055;19;20309;-66
2022/03/29 07:19:43;;;;;;;17.48;12.95;;;6.20;99.90;;;;;;7381082;19;20554;-67
2022/03/29 07:22:08;;;;;;;17.93;12.33;;;6.20;99.90;;;;;;7380870;19;20305;-67
2022/03/29 07:24:34;;;;;;;18.38;12.45;;;6.30;99.90;;;;;;7383014;19;20309;-67
2022/03/29 07:27:00;;;;;;;19.20;13.47;;;6.30;99.90;;;;;;7381949;19;20327;-67
2022/03/29 07:29:26;;;;;;;16.47;12.93;;;6.30;99.90;;;;;;7378692;19;20332;-67
2022/03/29 07:31:52;;;;;;;15.85;12.43;;;6.30;99.90;;;;;;7379669;19;20453;-67
2022/03/29 07:34:18;;;;;;;17.65;12.73;;;6.30;99.90;;;;;;7380848;19;20380;-66
2022/03/29 07:36:44;;;;;;;16.30;12.32;;;6.30;99.90;;;;;;7380434;19;20308;-66
2022/03/29 07:39:09;;;;;;;16.15;12.65;;;6.30;99.90;;;;;;7378755;19;20353;-67
2022/03/29 07:41:35;;;;;;;15.17;12.13;;;6.40;99.90;;;;;;7379990;19;20337;-66
2022/03/29 07:44:01;;;;;;;16.60;12.43;;;6.40;99.90;;;;;;7380351;19;20388;-67
2022/03/29 07:46:27;;;;;;;16.92;12.43;;;6.40;99.90;;;;;;7379284;19;20313;-66
2022/03/29 07:48:52;;;;;;;15.00;12.33;;;6.40;99.90;;;;;;7379093;19;20332;-66
2022/03/29 07:51:18;;;;;;;16.17;12.40;;;6.50;99.90;;;;;;7383571;19;20337;-66
2022/03/29 07:53:44;;;;;;;14.90;12.57;;;6.50;99.90;;;;;;7379576;19;20316;-66
2022/03/29 07:56:10;;;;;;;17.00;12.13;;;6.60;99.90;;;;;;7380488;19;20320;-66
2022/03/29 07:58:35;;;;;;;17.00;12.35;;;6.70;99.90;;;;;;7378461;19;20324;-66
2022/03/29 08:01:02;;;;;;;16.17;12.23;;;6.70;99.90;;;;;;7376986;19;20379;-66
2022/03/29 08:03:32;;;;;;;15.52;12.25;;;6.60;99.90;;;;;;7380591;19;20317;-66
2022/03/29 08:05:58;;;;;;;17.08;12.60;;;6.50;99.90;;;;;;7378405;19;20360;-66
2022/03/29 08:08:24;;;;;;;20.13;12.88;;;6.40;99.90;;;;;;7376248;19;20312;-66
2022/03/29 08:10:50;;;;;;;15.27;12.10;;;6.50;99.90;;;;;;7376354;19;20307;-66
2022/03/29 08:13:16;;;;;;;16.88;12.88;;;6.50;99.90;;;;;;7378641;19;20662;-67
2022/03/29 08:15:43;;;;;;;16.33;12.60;;;6.50;99.90;;;;;;7377616;19;20324;-67
2022/03/29 08:18:09;;;;;;;17.85;13.63;;;6.50;99.90;;;;;;7377469;19;21050;-67
2022/03/29 08:20:36;;;;;;;15.23;12.48;;;6.50;99.90;;;;;;7376579;19;20324;-67
2022/03/29 08:23:02;;;;;;;18.52;13.68;;;6.50;99.90;;;;;;7334329;19;20359;-67
2022/03/29 08:25:29;;;;;;;18.42;13.77;;;6.60;99.90;;;;;;7375776;19;20304;-67
2022/03/29 08:27:56;;;;;;;18.60;13.03;;;6.60;99.90;;;;;;7374120;19;20886;-66
2022/03/29 08:30:22;;;;;;;19.23;13.52;;;6.70;99.90;;;;;;7378561;19;20311;-67
2022/03/29 08:32:47;;;;;;;16.48;12.18;;;6.80;99.90;;;;;;7378893;19;20380;-66
2022/03/29 08:35:13;;;;;;;18.17;12.97;;;6.90;99.90;;;;;;7377556;19;20317;-67
2022/03/29 08:37:40;;;;;;;19.65;13.98;;;6.80;99.90;;;;;;7373268;19;20320;-66
2022/03/29 08:40:09;;;;;;;19.05;13.13;;;7.10;99.90;;;;;;7378181;19;20300;-66
2022/03/29 08:42:35;;;;;;;20.38;13.80;;;7.00;99.90;;;;;;7376620;19;20321;-67
2022/03/29 08:45:01;;;;;;;19.07;13.03;;;7.00;99.90;;;;;;7373794;19;20353;-67
2022/03/29 08:47:26;;;;;;;16.08;12.88;;;6.90;99.90;;;;;;7373780;19;20316;-67
2022/03/29 08:49:52;;;;;;;18.10;12.95;;;6.90;99.90;;;;;;7373105;19;21108;-66
2022/03/29 08:52:20;;;;;;;17.05;13.00;;;6.90;99.90;;;;;;7371230;19;20319;-66
2022/03/29 08:54:46;;;;;;;17.83;13.18;;;7.00;99.90;;;;;;7373923;19;20320;-66
2022/03/29 08:57:12;;;;;;;16.10;12.20;;;7.10;99.90;;;;;;7376202;19;20336;-66
2022/03/29 08:59:40;;;;;;;14.85;12.00;;;7.20;99.90;;;;;;7377645;19;20877;-66
2022/03/29 09:02:09;;;;;;;17.40;13.15;;;7.00;99.90;;;;;;7376916;19;20321;-66
2022/03/29 09:04:35;;;;;;;16.60;12.50;;;7.10;99.90;;;;;;7376926;19;20321;-66
2022/03/29 09:07:01;;;;;;;15.27;12.27;;;7.20;99.90;;;;;;7379666;19;20897;-66
2022/03/29 09:09:27;;;;;;;18.65;12.85;;;7.30;99.90;;;;;;7379535;19;20329;-66
2022/03/29 09:11:55;;;;;;;20.38;13.60;;;7.30;99.90;;;;;;7376623;19;20366;-66
2022/03/29 09:14:25;;;;;;;20.77;12.57;;;7.30;99.90;;;;;;7379319;19;20367;-66
2022/03/29 09:16:51;;;;;;;20.08;12.98;;;7.30;99.90;;;;;;7376317;19;20346;-67
2022/03/29 09:19:19;;;;;;;18.33;13.20;;;7.30;99.90;;;;;;7377507;19;21022;-67
2022/03/29 09:21:45;;;;;;;15.98;12.75;;;7.30;99.90;;;;;;7376334;19;20352;-67
2022/03/29 09:24:14;;;;;;;17.48;12.85;;;7.30;99.90;;;;;;7380000;19;20317;-66
2022/03/29 09:26:51;;;;;;;20.73;13.57;;;7.30;99.90;;;;;;7377045;19;20312;-66
2022/03/29 09:29:21;;;;;;;16.52;12.40;;;7.40;99.90;;;;;;7376652;19;20340;-67
2022/03/29 09:31:49;;;;;;;18.60;12.30;;;7.50;99.90;;;;;;7375195;19;20311;-67
2022/03/29 09:34:16;;;;;;;16.88;11.77;;;7.50;99.90;;;;;;7378832;19;20308;-67
2022/03/29 09:36:48;;;;;;;16.60;12.02;;;7.40;99.90;;;;;;7376336;19;20407;-67
2022/03/29 09:39:34;;;;;;;16.25;11.40;;;7.30;99.90;;;;;;7372025;19;20349;-67
2022/03/29 09:42:00;;;;;;;17.77;11.93;;;7.40;99.90;;;;;;7377083;19;20588;-67
2022/03/29 09:44:34;;;;;;;16.13;11.48;;;7.40;99.90;;;;;;7376812;19;20357;-66
2022/03/29 09:47:04;;;;;;;14.73;11.65;;;7.50;99.90;;;;;;7377440;19;20304;-67
2022/03/29 09:49:30;;;;;;;14.23;10.13;;;7.50;99.90;;;;;;7375679;19;20308;-67
2022/03/29 09:52:14;;;;;;;16.43;10.80;;;7.80;99.90;;;;;;7375554;19;20350;-67
2022/03/29 09:54:39;;;;;;;16.23;11.20;;;7.80;99.90;;;;;;7376667;19;20896;-67
2022/03/29 09:57:05;;;;;;;16.55;11.35;;;7.90;99.90;;;;;;7375649;19;20388;-67
2022/03/29 09:59:33;;;;;;;14.73;10.83;;;7.90;99.90;;;;;;7375925;19;21105;-66
2022/03/29 10:02:00;;;;;;;15.57;10.85;;;8.00;99.90;;;;;;7374062;19;20304;-67
2022/03/29 10:04:29;;;;;;;14.50;10.27;;;8.10;99.90;;;;;;7377088;19;20883;-66
2022/03/29 10:06:57;;;;;;;15.60;10.90;;;8.30;99.90;;;;;;7374443;19;20341;-67
2022/03/29 10:09:26;;;;;;;14.83;10.97;;;8.50;99.90;;;;;;7376265;19;21032;-67
2022/03/29 10:12:05;;;;;;;13.80;10.47;;;8.60;99.90;;;;;;7376391;19;20391;-68
2022/03/29 10:14:32;;;;;;;15.13;10.77;;;8.60;99.90;;;;;;7375732;19;20324;-67
2022/03/29 10:16:58;;;;;;;14.60;10.40;;;8.60;99.90;;;;;;7376066;19;20374;-67
2022/03/29 10:19:23;;;;;;;14.60;10.88;;;8.60;99.90;;;;;;7372715;19;20341;-68
2022/03/29 10:21:50;;;;;;;13.75;10.48;;;8.70;99.90;;;;;;7373879;19;20396;-67
2022/03/29 10:24:18;;;;;;;16.13;10.87;;;9.00;99.90;;;;;;7378112;19;20407;-67
2022/03/29 10:26:45;;;;;;;13.70;10.27;;;9.10;99.90;;;;;;7371611;19;20719;-67
2022/03/29 10:29:11;;;;;;;14.80;10.02;;;9.10;99.90;;;;;;7370628;19;20352;-67
2022/03/29 10:31:39;;;;;;;14.77;11.18;;;9.20;99.90;;;;;;7366295;19;20324;-67
2022/03/29 10:34:16;;;;;;;15.40;10.20;;;9.00;99.90;;;;;;7370166;19;20320;-67
2022/03/29 10:37:07;;;;;;;16.00;11.07;;;9.00;99.90;;;;;;7267660;19;2004577;-67
2022/03/29 10:40:00;;;;;;;14.52;11.55;;;9.00;99.90;;;;;;7269221;19;2004703;-67
2022/03/29 10:42:30;;;;;;;16.42;11.82;;;9.30;99.90;;;;;;7268402;19;2004302;-67
2022/03/29 10:45:03;;;;;;;14.60;11.13;;;9.50;99.90;;;;;;7373704;19;20348;-67
2022/03/29 10:47:30;;;;;;;14.45;11.07;;;9.40;99.90;;;;;;7372928;19;20331;-68
2022/03/29 10:49:55;;;;;;;15.18;10.73;;;9.30;99.90;;;;;;7377976;19;20399;-67
2022/03/29 10:52:21;;;;;;;16.17;11.55;;;9.50;99.90;;;;;;7367746;19;20555;-68
2022/03/29 10:54:47;;;;;;;12.13;10.83;;;9.80;99.90;;;;;;7381757;19;20336;-67
2022/03/29 10:57:28;;;;;;;16.58;11.85;;;9.60;99.90;;;;;;7380185;19;20317;-68
2022/03/29 11:00:06;;;;;;;16.40;11.10;;;9.60;99.90;;;;;;7277893;19;2004331;-68
2022/03/29 11:02:32;;;;;;;15.60;11.05;;;10.10;99.90;;;;;;7375552;19;20346;-68
2022/03/29 11:05:12;;;;;;;14.63;11.00;;;10.30;99.90;;;;;;7379802;19;20312;-68
2022/03/29 11:07:39;;;;;;;15.73;10.48;;;9.80;99.90;;;;;;7377625;19;20392;-68
2022/03/29 11:10:11;;;;;;;16.60;10.77;;;9.50;99.90;;;;;;7377576;19;20919;-68
2022/03/29 11:12:38;;;;;;;16.08;11.45;;;9.40;99.90;;;;;;7378842;19;20378;-68
2022/03/29 11:15:27;;;;;;;14.07;10.88;;;9.60;99.90;;;;;;7378740;19;20334;-68
2022/03/29 11:17:56;;;;;;;13.40;9.93;;;10.20;99.90;;;;;;7276917;19;2004284;-68
2022/03/29 11:20:32;;;;;;;17.00;10.80;;;10.40;99.90;;;;;;7379121;19;20308;-68
2022/03/29 11:23:08;;;;;;;14.40;10.68;;;10.20;99.90;;;;;;7273935;19;2004444;-68
2022/03/29 11:25:41;;;;;;;18.15;10.63;;;9.90;99.90;;;;;;7276062;19;2004547;-68
2022/03/29 11:28:09;;;;;;;13.98;10.82;;;9.90;99.90;;;;;;7377820;19;20334;-68
2022/03/29 11:30:35;;;;;;;16.40;10.27;;;10.40;99.90;;;;;;7374945;19;20304;-68
2022/03/29 11:33:05;;;;;;;14.05;10.65;;;10.60;99.90;;;;;;7377628;19;20316;-68
2022/03/29 11:35:35;;;;;;;13.55;10.65;;;10.80;99.90;;;;;;7378825;19;20877;-68
2022/03/29 11:38:13;;;;;;;15.02;10.13;;;10.70;99.90;;;;;;7376130;19;20360;-68
2022/03/29 11:40:39;;;;;;;15.27;10.88;;;10.80;99.90;;;;;;7376336;19;20329;-68
2022/03/29 11:43:10;;;;;;;16.38;10.68;;;11.30;99.90;;;;;;7377525;19;20345;-68
2022/03/29 11:45:39;;;;;;;12.45;9.65;;;11.30;99.90;;;;;;7378781;19;20331;-68
2022/03/29 11:48:11;;;;;;;15.35;10.38;;;11.50;99.90;;;;;;7375426;19;20944;-69
2022/03/29 11:50:43;;;;;;;11.18;8.90;;;11.90;99.90;;;;;;7375774;19;20367;-69
2022/03/29 11:53:18;;;;;;;11.40;8.60;;;11.90;99.90;;;;;;7376308;19;20361;-69
2022/03/29 11:56:04;;;;;;;14.20;9.48;;;11.70;99.90;;;;;;7376855;19;20320;-70
2022/03/29 11:58:36;;;;;;;12.53;8.73;;;11.60;99.90;;;;;;7378460;19;20338;-70
2022/03/29 12:01:07;;;;;;;12.18;9.20;;;11.40;99.90;;;;;;7379793;19;20341;-69
2022/03/29 12:03:40;;;;;;;12.20;8.95;;;11.60;99.90;;;;;;7378144;19;20312;-69
2022/03/29 12:06:13;;;;;;;10.63;8.48;;;11.40;99.90;;;;;;7376995;19;20327;-70
2022/03/29 12:08:55;;;;;;;10.25;8.63;;;11.50;99.90;;;;;;7379577;19;20396;-68
2022/03/29 12:11:40;;;;;;;13.48;8.43;;;11.30;99.90;;;;;;7274550;19;2004549;-70
2022/03/29 12:14:13;;;;;;;11.63;8.77;;;11.70;99.90;;;;;;7377498;19;20971;-70
2022/03/29 12:17:09;;;;;;;13.07;9.05;;;11.70;99.90;;;;;;7356933;19;20440;-69
2022/03/29 12:19:36;;;;;;;10.30;8.20;;;11.90;99.90;;;;;;7275885;19;2004400;-70
2022/03/29 12:22:07;;;;;;;11.60;8.27;;;12.20;99.90;;;;;;7376715;19;20332;-68
2022/03/29 12:24:34;;;;;;;11.82;7.88;;;12.10;99.90;;;;;;7372990;19;20316;-69
2022/03/29 12:27:06;;;;;;;11.10;7.88;;;12.30;99.90;;;;;;7376526;19;20338;-69
2022/03/29 12:29:41;;;;;;;11.60;8.02;;;12.50;99.90;;;;;;7273596;19;2004338;-69
2022/03/29 12:32:07;;;;;;;13.48;8.93;;;12.50;99.90;;;;;;7372678;19;21565;-69
2022/03/29 12:34:33;;;;;;;10.77;8.10;;;12.80;99.90;;;;;;7376988;19;20329;-73
2022/03/29 12:37:00;;;;;;;10.85;8.00;;;12.90;99.90;;;;;;7376698;19;20360;-69
2022/03/29 12:39:37;;;;;;;10.43;7.82;;;12.70;99.90;;;;;;7375608;19;20356;-68
2022/03/29 12:42:03;;;;;;;9.32;7.53;;;12.60;99.90;;;;;;7375837;19;20317;-69
2022/03/29 12:44:35;;;;;;;11.30;8.00;;;12.50;99.90;;;;;;7374825;19;20313;-69
2022/03/29 12:47:00;;;;;;;10.43;8.13;;;12.60;99.90;;;;;;7378649;19;20332;-69